Randolph, Ohio
Current Conditions -  °F | °C
As of 9:54 AM on Friday 28 Nov 2014 (Local Time) from KAKR Reporting Station
Overcast Overcast  
Wind Chill: 12°   Ceiling: 3500
Heat Index: 23°   Visibility: 10mi
Dew Point: 14°   Wind: 10mph
Humidity: 68%   Direction: 280°W
Pressure: 30.34"   Gusts: NA
Location:  41.03°N, 81.25°W
Report Text: KAKR 281454Z AUTO 28009KT 10SM OVC035 M05/M10 A3034 RMK AO2 SLP288 T10501100 52008
Loading
Personal Weather Stations






























Interactive Weather Map New forecast layout! Learn more

10-Day Weather Forecast

Advertisements
Track Severe Weather on mobile